createdAt,value
2019-04-09T00:00:40.645Z,1004.69
2019-04-09T00:01:40.385Z,1004.70
2019-04-09T00:02:40.278Z,1004.68
2019-04-09T00:03:40.070Z,1004.71
2019-04-09T00:04:39.768Z,1004.75
2019-04-09T00:05:40.153Z,1004.73
2019-04-09T00:06:39.822Z,1004.70
2019-04-09T00:07:52.416Z,1004.73
2019-04-09T00:08:40.071Z,1004.73
2019-04-09T00:09:39.899Z,1004.71
2019-04-09T00:10:39.931Z,1004.71
2019-04-09T00:11:40.320Z,1004.67
2019-04-09T00:12:40.108Z,1004.70
2019-04-09T00:13:40.005Z,1004.69
2019-04-09T00:14:40.329Z,1004.70
2019-04-09T00:15:40.214Z,1004.70
2019-04-09T00:16:40.083Z,1004.70
2019-04-09T00:17:40.219Z,1004.68
2019-04-09T00:18:40.135Z,1004.66
2019-04-09T00:19:40.164Z,1004.68
2019-04-09T00:20:40.195Z,1004.68
2019-04-09T00:21:40.216Z,1004.64
2019-04-09T00:22:41.250Z,1004.63
2019-04-09T00:23:40.464Z,1004.66
2019-04-09T00:24:41.310Z,1004.66
2019-04-09T00:25:40.329Z,1004.65
2019-04-09T00:26:48.428Z,1004.63
2019-04-09T00:27:41.007Z,1004.68
2019-04-09T00:28:41.155Z,1004.64
2019-04-09T00:29:40.431Z,1004.62
2019-04-09T00:30:40.461Z,1004.64
2019-04-09T00:31:40.483Z,1004.60
2019-04-09T00:32:41.001Z,1004.63
2019-04-09T00:33:40.531Z,1004.59
2019-04-09T00:34:40.564Z,1004.60
2019-04-09T00:35:40.581Z,1004.63
2019-04-09T00:36:40.611Z,1004.63
2019-04-09T00:37:40.650Z,1004.62
2019-04-09T00:38:40.663Z,1004.65
2019-04-09T00:39:41.150Z,1004.65
2019-04-09T00:40:40.716Z,1004.64
2019-04-09T00:41:40.742Z,1004.63
2019-04-09T00:42:41.392Z,1004.69
2019-04-09T00:43:41.477Z,1004.74
2019-04-09T00:44:41.275Z,1004.74
2019-04-09T00:45:40.843Z,1004.72
2019-04-09T00:46:41.010Z,1004.69
2019-04-09T00:47:43.716Z,1004.70
2019-04-09T00:48:40.926Z,1004.72
2019-04-09T00:49:41.608Z,1004.77
2019-04-09T00:50:41.683Z,1004.77
2019-04-09T00:51:41.537Z,1004.82
2019-04-09T00:52:41.025Z,1004.79
2019-04-09T00:53:41.229Z,1004.81
2019-04-09T00:54:41.571Z,1004.79
2019-04-09T00:55:41.630Z,1004.78
2019-04-09T00:56:41.129Z,1004.77
2019-04-09T00:57:41.192Z,1004.76
2019-04-09T00:58:41.183Z,1004.77
2019-04-09T00:59:42.183Z,1004.76
2019-04-09T01:01:28.794Z,1004.72
2019-04-09T01:02:32.332Z,1004.72
2019-04-09T01:04:11.394Z,1004.74
2019-04-09T01:05:11.425Z,1004.71
2019-04-09T01:06:11.444Z,1004.74
2019-04-09T01:07:14.476Z,1004.76
2019-04-09T01:08:11.507Z,1004.70
2019-04-09T01:09:12.557Z,1004.74
2019-04-09T01:10:12.334Z,1004.71
2019-04-09T01:11:11.574Z,1004.72
2019-04-09T01:12:12.220Z,1004.75
2019-04-09T01:13:11.626Z,1004.79
2019-04-09T01:14:11.653Z,1004.77
2019-04-09T01:15:12.762Z,1004.77
2019-04-09T01:16:11.702Z,1004.85
2019-04-09T01:17:11.730Z,1004.82
2019-04-09T01:19:02.087Z,1004.82
2019-04-09T01:19:54.397Z,1004.84
2019-04-09T01:20:54.415Z,1004.84
2019-04-09T01:21:54.440Z,1004.82
2019-04-09T01:22:54.468Z,1004.88
2019-04-09T01:23:55.411Z,1004.85
2019-04-09T01:24:55.507Z,1004.84
2019-04-09T01:25:55.550Z,1004.87
2019-04-09T01:26:56.734Z,1004.85
2019-04-09T01:27:55.527Z,1004.83
2019-04-09T01:28:56.036Z,1004.83
2019-04-09T01:29:55.256Z,1004.79
2019-04-09T01:30:54.766Z,1004.79
2019-04-09T01:31:54.694Z,1004.81
2019-04-09T01:32:55.680Z,1004.77
2019-04-09T01:33:55.662Z,1004.87
2019-04-09T01:36:25.495Z,1004.83
2019-04-09T01:37:24.908Z,1004.80
2019-04-09T01:38:24.926Z,1004.80
2019-04-09T01:39:25.761Z,1004.81
2019-04-09T01:40:25.699Z,1004.81
2019-04-09T01:41:25.010Z,1004.85
2019-04-09T01:42:25.031Z,1004.86
2019-04-09T01:43:25.057Z,1004.83
2019-04-09T01:44:25.086Z,1004.88
2019-04-09T01:45:26.158Z,1004.84
2019-04-09T01:46:25.140Z,1004.89
2019-04-09T01:47:25.160Z,1004.88
2019-04-09T01:48:25.697Z,1004.85
2019-04-09T01:49:25.693Z,1004.88
2019-04-09T01:50:25.513Z,1004.92
2019-04-09T01:51:25.269Z,1004.89
2019-04-09T01:52:25.288Z,1004.90
2019-04-09T01:53:25.832Z,1004.96
2019-04-09T01:54:25.775Z,1004.93
2019-04-09T01:55:25.365Z,1004.96
2019-04-09T01:56:25.392Z,1004.96
2019-04-09T01:57:29.857Z,1004.99
2019-04-09T01:58:25.442Z,1005.01
2019-04-09T01:59:25.464Z,1004.98
2019-04-09T02:00:25.769Z,1004.98
2019-04-09T02:01:25.997Z,1004.99
2019-04-09T02:02:25.544Z,1005.02
2019-04-09T02:03:25.566Z,1004.99
2019-04-09T02:04:25.601Z,1004.98
2019-04-09T02:05:25.619Z,1004.98
2019-04-09T02:06:25.643Z,1005.01
2019-04-09T02:07:26.366Z,1004.99
2019-04-09T02:08:26.228Z,1005.02
2019-04-09T02:09:25.721Z,1004.97
2019-04-09T02:10:25.746Z,1005.02
2019-04-09T02:11:26.314Z,1004.98
2019-04-09T02:12:26.578Z,1004.99
2019-04-09T02:13:26.674Z,1004.97
2019-04-09T02:14:25.852Z,1004.95
2019-04-09T02:15:25.877Z,1004.98
2019-04-09T02:16:26.389Z,1004.96
2019-04-09T02:17:26.342Z,1004.95
2019-04-09T02:18:25.952Z,1004.96
2019-04-09T02:19:25.978Z,1004.97
2019-04-09T02:20:26.002Z,1004.92
2019-04-09T02:21:26.030Z,1004.99
2019-04-09T02:22:27.206Z,1004.93
2019-04-09T02:23:26.080Z,1004.93
2019-04-09T02:24:26.599Z,1004.92
2019-04-09T02:25:26.132Z,1004.90
2019-04-09T02:26:26.542Z,1004.89
2019-04-09T02:27:38.445Z,1004.87
2019-04-09T02:28:27.049Z,1004.89
2019-04-09T02:29:26.948Z,1004.90
2019-04-09T02:30:26.259Z,1004.91
2019-04-09T02:31:26.683Z,1004.96
2019-04-09T02:32:26.309Z,1004.95
2019-04-09T02:33:26.335Z,1004.90
2019-04-09T02:34:27.665Z,1004.93
2019-04-09T02:35:26.475Z,1004.90
2019-04-09T02:36:26.416Z,1004.90
2019-04-09T02:37:27.469Z,1004.89
2019-04-09T02:38:26.468Z,1004.93
2019-04-09T02:39:27.369Z,1004.93
2019-04-09T02:40:27.503Z,1004.91
2019-04-09T02:41:27.501Z,1004.91
2019-04-09T02:42:26.719Z,1004.87
2019-04-09T02:43:26.666Z,1004.91
2019-04-09T02:44:27.568Z,1004.90
2019-04-09T02:45:26.800Z,1004.97
2019-04-09T02:46:26.662Z,1004.91
2019-04-09T02:47:27.484Z,1004.96
2019-04-09T02:48:27.516Z,1004.98
2019-04-09T02:49:26.742Z,1004.97
2019-04-09T02:50:26.769Z,1004.99
2019-04-09T02:51:26.795Z,1004.92
2019-04-09T02:52:27.504Z,1004.97
2019-04-09T02:53:27.366Z,1004.94
2019-04-09T02:54:27.258Z,1005.01
2019-04-09T02:55:27.067Z,1004.97
2019-04-09T02:56:26.919Z,1004.98
2019-04-09T02:57:30.578Z,1005.02
2019-04-09T02:58:26.969Z,1005.01
2019-04-09T02:59:27.917Z,1005.01
2019-04-09T03:00:28.012Z,1005.01
2019-04-09T03:01:27.069Z,1005.02
2019-04-09T03:02:28.059Z,1004.99
2019-04-09T03:03:27.704Z,1004.95
2019-04-09T03:04:27.130Z,1004.99
2019-04-09T03:05:27.147Z,1004.97
2019-04-09T03:06:27.883Z,1005.03
2019-04-09T03:07:27.805Z,1005.01
2019-04-09T03:08:27.228Z,1004.97
2019-04-09T03:09:27.245Z,1004.95
2019-04-09T03:10:27.271Z,1004.95
2019-04-09T03:11:27.298Z,1004.95
2019-04-09T03:12:27.323Z,1004.98
2019-04-09T03:13:27.347Z,1004.94
2019-04-09T03:14:28.448Z,1004.96
2019-04-09T03:15:27.712Z,1005.01
2019-04-09T03:16:27.422Z,1005.00
2019-04-09T03:17:27.948Z,1005.01
2019-04-09T03:18:27.475Z,1005.03
2019-04-09T03:19:27.500Z,1005.03
2019-04-09T03:20:28.189Z,1005.01
2019-04-09T03:21:28.107Z,1004.96
2019-04-09T03:22:27.579Z,1004.99
2019-04-09T03:23:27.605Z,1004.96
2019-04-09T03:24:28.947Z,1004.99
2019-04-09T03:25:28.315Z,1004.94
2019-04-09T03:26:27.673Z,1004.94
2019-04-09T03:27:28.050Z,1004.99
2019-04-09T03:28:28.627Z,1004.99
2019-04-09T03:29:27.749Z,1005.01
2019-04-09T03:30:28.458Z,1004.98
2019-04-09T03:31:29.952Z,1005.09
2019-04-09T03:32:29.311Z,1005.10
2019-04-09T03:33:29.575Z,1005.02
2019-04-09T03:34:30.053Z,1005.07
2019-04-09T03:35:27.902Z,1005.09
2019-04-09T03:36:27.934Z,1005.13
2019-04-09T03:37:28.626Z,1005.07
2019-04-09T03:38:28.464Z,1005.11
2019-04-09T03:39:28.002Z,1005.11
2019-04-09T03:40:28.027Z,1005.14
2019-04-09T03:41:28.053Z,1005.12
2019-04-09T03:42:28.430Z,1005.13
2019-04-09T03:43:28.623Z,1005.13
2019-04-09T03:44:29.149Z,1005.14
2019-04-09T03:45:28.937Z,1005.12
2019-04-09T03:46:28.181Z,1005.12
2019-04-09T03:47:28.204Z,1005.13
2019-04-09T03:48:28.226Z,1005.07
2019-04-09T03:49:28.254Z,1005.09
2019-04-09T03:50:28.276Z,1005.09
2019-04-09T03:51:29.113Z,1005.12
2019-04-09T03:52:29.282Z,1005.16
2019-04-09T03:53:28.594Z,1005.19
2019-04-09T03:54:28.706Z,1005.17
2019-04-09T03:55:28.683Z,1005.19
2019-04-09T03:56:28.430Z,1005.16
2019-04-09T03:57:28.452Z,1005.16
2019-04-09T03:58:29.247Z,1005.18
2019-04-09T03:59:29.265Z,1005.25
2019-04-09T04:00:28.533Z,1005.22
2019-04-09T04:01:28.576Z,1005.24
2019-04-09T04:02:28.861Z,1005.23
2019-04-09T04:03:28.608Z,1005.27
2019-04-09T04:04:28.628Z,1005.26
2019-04-09T04:05:28.653Z,1005.27
2019-04-09T04:06:28.675Z,1005.26
2019-04-09T04:07:28.699Z,1005.32
2019-04-09T04:08:29.257Z,1005.33
2019-04-09T04:09:29.258Z,1005.35
2019-04-09T04:10:29.496Z,1005.36
2019-04-09T04:11:29.657Z,1005.36
2019-04-09T04:12:28.924Z,1005.33
2019-04-09T04:13:29.003Z,1005.32
2019-04-09T04:14:28.948Z,1005.33
2019-04-09T04:15:28.900Z,1005.30
2019-04-09T04:16:29.094Z,1005.39
2019-04-09T04:17:29.856Z,1005.33
2019-04-09T04:18:29.859Z,1005.37
2019-04-09T04:19:29.002Z,1005.37
2019-04-09T04:20:29.173Z,1005.31
2019-04-09T04:21:29.863Z,1005.33
2019-04-09T04:22:29.258Z,1005.30
2019-04-09T04:23:29.284Z,1005.31
2019-04-09T04:24:29.132Z,1005.29
2019-04-09T04:25:29.151Z,1005.33
2019-04-09T04:26:29.172Z,1005.33
2019-04-09T04:27:29.781Z,1005.35
2019-04-09T04:28:33.208Z,1005.30
2019-04-09T04:29:29.247Z,1005.34
2019-04-09T04:30:30.112Z,1005.36
2019-04-09T04:31:30.161Z,1005.34
2019-04-09T04:32:29.424Z,1005.36
2019-04-09T04:33:29.368Z,1005.33
2019-04-09T04:34:29.374Z,1005.36
2019-04-09T04:35:29.405Z,1005.39
2019-04-09T04:36:29.422Z,1005.34
2019-04-09T04:37:29.448Z,1005.37
2019-04-09T04:38:29.473Z,1005.41
2019-04-09T04:39:29.499Z,1005.35
2019-04-09T04:40:29.521Z,1005.37
2019-04-09T04:41:30.190Z,1005.39
2019-04-09T04:42:29.752Z,1005.43
2019-04-09T04:43:29.593Z,1005.44
2019-04-09T04:44:30.627Z,1005.44
2019-04-09T04:45:30.446Z,1005.40
2019-04-09T04:46:29.670Z,1005.42
2019-04-09T04:47:30.139Z,1005.40
2019-04-09T04:48:29.719Z,1005.46
2019-04-09T04:49:29.745Z,1005.45
2019-04-09T04:50:29.819Z,1005.42
2019-04-09T04:51:30.813Z,1005.43
2019-04-09T04:52:30.028Z,1005.47
2019-04-09T04:53:30.770Z,1005.49
2019-04-09T04:54:30.039Z,1005.44
2019-04-09T04:55:29.892Z,1005.45
2019-04-09T04:56:29.984Z,1005.47
2019-04-09T04:57:29.944Z,1005.46
2019-04-09T04:58:40.322Z,1005.48
2019-04-09T04:59:29.998Z,1005.53
2019-04-09T05:00:31.073Z,1005.46
2019-04-09T05:01:30.482Z,1005.48
2019-04-09T05:02:30.060Z,1005.50
2019-04-09T05:03:30.518Z,1005.53
2019-04-09T05:04:30.118Z,1005.55
2019-04-09T05:05:30.987Z,1005.57
2019-04-09T05:06:30.166Z,1005.58
2019-04-09T05:07:39.053Z,1005.59
2019-04-09T05:08:30.210Z,1005.60
2019-04-09T05:09:30.637Z,1005.58
2019-04-09T05:10:30.267Z,1005.65
2019-04-09T05:11:30.293Z,1005.64
2019-04-09T05:12:30.309Z,1005.65
2019-04-09T05:13:30.511Z,1005.66
2019-04-09T05:14:30.357Z,1005.68
2019-04-09T05:15:31.309Z,1005.66
2019-04-09T05:16:30.645Z,1005.69
2019-04-09T05:17:30.855Z,1005.70
2019-04-09T05:18:31.287Z,1005.70
2019-04-09T05:19:30.709Z,1005.72
2019-04-09T05:20:30.504Z,1005.65
2019-04-09T05:21:30.537Z,1005.73
2019-04-09T05:22:32.246Z,1005.70
2019-04-09T05:23:31.730Z,1005.73
2019-04-09T05:24:30.606Z,1005.75
2019-04-09T05:25:31.377Z,1005.75
2019-04-09T05:26:31.720Z,1005.80
2019-04-09T05:27:30.886Z,1005.82
2019-04-09T05:28:31.056Z,1005.78
2019-04-09T05:29:30.783Z,1005.84
2019-04-09T05:30:31.017Z,1005.83
2019-04-09T05:31:30.804Z,1005.85
2019-04-09T05:32:31.928Z,1005.79
2019-04-09T05:33:30.825Z,1005.87
2019-04-09T05:34:31.835Z,1005.82
2019-04-09T05:35:31.418Z,1005.86
2019-04-09T05:36:31.896Z,1005.84
2019-04-09T05:37:31.037Z,1005.87
2019-04-09T05:38:30.954Z,1005.86
2019-04-09T05:39:30.983Z,1005.89
2019-04-09T05:40:30.997Z,1005.92
2019-04-09T05:41:31.855Z,1005.95
2019-04-09T05:42:31.047Z,1005.93
2019-04-09T05:43:32.038Z,1005.95
2019-04-09T05:44:31.104Z,1005.96
2019-04-09T05:45:31.962Z,1005.95
2019-04-09T05:46:31.933Z,1005.97
2019-04-09T05:47:31.172Z,1005.95
2019-04-09T05:48:31.696Z,1006.02
2019-04-09T05:49:31.815Z,1005.96
2019-04-09T05:50:31.934Z,1005.98
2019-04-09T05:51:31.377Z,1006.02
2019-04-09T05:52:31.428Z,1006.00
2019-04-09T05:53:31.332Z,1006.09
2019-04-09T05:54:31.478Z,1006.06
2019-04-09T05:55:31.367Z,1006.08
2019-04-09T05:56:31.392Z,1006.13
2019-04-09T05:57:31.417Z,1006.15
2019-04-09T05:58:31.445Z,1006.09
2019-04-09T05:59:31.471Z,1006.12
2019-04-09T06:00:32.414Z,1006.13
2019-04-09T06:01:32.436Z,1006.18
2019-04-09T06:02:31.800Z,1006.14
2019-04-09T06:03:31.567Z,1006.18
2019-04-09T06:04:31.851Z,1006.12
2019-04-09T06:05:31.622Z,1006.13
2019-04-09T06:06:31.639Z,1006.10
2019-04-09T06:07:31.668Z,1006.13
2019-04-09T06:08:31.850Z,1006.09
2019-04-09T06:09:31.714Z,1006.11
2019-04-09T06:10:31.744Z,1006.09
2019-04-09T06:11:31.777Z,1006.10
2019-04-09T06:12:31.790Z,1006.08
2019-04-09T06:13:31.813Z,1006.10
2019-04-09T06:14:32.409Z,1006.11
2019-04-09T06:15:32.935Z,1006.06
2019-04-09T06:16:31.887Z,1006.13
2019-04-09T06:17:32.963Z,1006.04
2019-04-09T06:18:32.309Z,1006.08
2019-04-09T06:19:32.326Z,1006.08
2019-04-09T06:20:32.044Z,1006.15
2019-04-09T06:21:37.285Z,1006.16
2019-04-09T06:22:32.936Z,1006.12
2019-04-09T06:23:32.100Z,1006.22
2019-04-09T06:24:32.087Z,1006.26
2019-04-09T06:25:32.122Z,1006.62
2019-04-09T06:26:32.765Z,1007.52
2019-04-09T06:27:32.166Z,1007.93
2019-04-09T06:28:32.477Z,1008.46
2019-04-09T06:29:32.209Z,1008.95
2019-04-09T06:30:32.233Z,1009.00
2019-04-09T06:31:32.742Z,1009.06
2019-04-09T06:32:32.284Z,1009.33
2019-04-09T06:33:32.320Z,1009.18
2019-04-09T06:34:32.336Z,1009.13
2019-04-09T06:35:32.362Z,1008.94
2019-04-09T06:36:32.387Z,1008.94
2019-04-09T06:37:33.373Z,1008.92
2019-04-09T06:38:33.504Z,1008.56
2019-04-09T06:39:32.611Z,1008.23
2019-04-09T06:40:32.617Z,1008.06
2019-04-09T06:41:33.165Z,1007.95
2019-04-09T06:42:32.542Z,1007.56
2019-04-09T06:43:32.567Z,1007.34
2019-04-09T06:44:32.925Z,1007.17
2019-04-09T06:45:32.624Z,1007.07
2019-04-09T06:46:32.788Z,1007.04
2019-04-09T06:47:32.937Z,1006.98
2019-04-09T06:48:33.358Z,1006.89
2019-04-09T06:49:32.729Z,1006.91
2019-04-09T06:50:32.770Z,1006.83
2019-04-09T06:51:36.743Z,1006.80
2019-04-09T06:52:32.807Z,1006.74
2019-04-09T06:53:33.273Z,1006.75
2019-04-09T06:54:32.869Z,1006.70
2019-04-09T06:55:32.890Z,1006.70
2019-04-09T06:56:33.715Z,1006.67
2019-04-09T06:57:33.794Z,1006.67
2019-04-09T06:58:32.970Z,1006.59
2019-04-09T06:59:36.428Z,1006.55
2019-04-09T07:00:33.966Z,1006.59
2019-04-09T07:01:33.097Z,1006.53
2019-04-09T07:02:33.647Z,1006.54
2019-04-09T07:03:33.108Z,1006.56
2019-04-09T07:04:34.301Z,1006.50
2019-04-09T07:05:33.167Z,1006.55
2019-04-09T07:06:33.194Z,1006.59
2019-04-09T07:07:34.072Z,1006.55
2019-04-09T07:08:33.303Z,1006.60
2019-04-09T07:09:33.602Z,1006.59
2019-04-09T07:10:33.306Z,1006.56
2019-04-09T07:11:33.332Z,1006.57
2019-04-09T07:12:33.367Z,1006.60
2019-04-09T07:13:33.695Z,1006.62
2019-04-09T07:14:33.418Z,1006.58
2019-04-09T07:15:33.496Z,1006.62
2019-04-09T07:16:33.729Z,1006.62
2019-04-09T07:17:34.437Z,1006.57
2019-04-09T07:18:33.532Z,1006.56
2019-04-09T07:19:33.563Z,1006.60
2019-04-09T07:20:33.596Z,1006.58
2019-04-09T07:21:36.143Z,1006.62
2019-04-09T07:22:33.646Z,1006.65
2019-04-09T07:23:34.218Z,1006.69
2019-04-09T07:24:33.721Z,1006.69
2019-04-09T07:25:34.108Z,1006.66
2019-04-09T07:26:34.027Z,1006.74
2019-04-09T07:27:34.887Z,1006.72
2019-04-09T07:28:33.869Z,1006.80
2019-04-09T07:29:45.560Z,1006.79
2019-04-09T07:30:33.878Z,1006.80
2019-04-09T07:31:33.908Z,1006.85
2019-04-09T07:32:38.278Z,1006.78
2019-04-09T07:33:33.973Z,1006.73
2019-04-09T07:34:36.261Z,1006.72
2019-04-09T07:35:34.475Z,1006.64
2019-04-09T07:36:36.402Z,1006.65
2019-04-09T07:37:34.327Z,1006.66
2019-04-09T07:38:34.500Z,1006.63
2019-04-09T07:39:34.146Z,1006.65
2019-04-09T07:40:35.679Z,1006.70
2019-04-09T07:41:37.923Z,1006.72
2019-04-09T07:42:34.282Z,1006.67
2019-04-09T07:43:35.787Z,1006.68
2019-04-09T07:44:35.162Z,1006.66
2019-04-09T07:45:38.633Z,1006.69
2019-04-09T07:46:34.446Z,1006.68
2019-04-09T07:47:34.701Z,1006.80
2019-04-09T07:48:34.531Z,1006.73
2019-04-09T07:49:36.944Z,1006.72
2019-04-09T07:50:34.476Z,1006.69
2019-04-09T07:51:34.820Z,1006.68
2019-04-09T07:52:36.603Z,1006.64
2019-04-09T07:53:34.758Z,1006.66
2019-04-09T07:54:40.731Z,1006.70
2019-04-09T07:55:35.046Z,1006.68
2019-04-09T07:56:34.745Z,1006.63
2019-04-09T07:57:38.438Z,1006.61
2019-04-09T07:58:34.873Z,1006.64
2019-04-09T07:59:36.575Z,1006.64
2019-04-09T08:00:35.052Z,1006.64
2019-04-09T08:01:35.962Z,1006.64
2019-04-09T08:02:35.478Z,1006.57
2019-04-09T08:03:34.870Z,1006.64
2019-04-09T08:04:39.031Z,1006.63
2019-04-09T08:05:35.519Z,1006.65
2019-04-09T08:06:35.417Z,1006.57
2019-04-09T08:07:34.985Z,1006.60
2019-04-09T08:08:36.000Z,1006.58
2019-04-09T08:09:35.539Z,1006.59
2019-04-09T08:10:35.079Z,1006.64
2019-04-09T08:11:36.035Z,1006.65
2019-04-09T08:13:57.796Z,1006.66
2019-04-09T08:15:00.128Z,1006.80
2019-04-09T08:15:57.926Z,1006.87
2019-04-09T08:16:58.469Z,1006.99
2019-04-09T08:18:04.803Z,1007.02
2019-04-09T08:18:57.946Z,1007.11
2019-04-09T08:19:58.894Z,1007.08
2019-04-09T08:21:01.115Z,1007.04
2019-04-09T08:21:59.452Z,1007.07
2019-04-09T08:22:58.587Z,1007.09
2019-04-09T08:23:58.322Z,1007.03
2019-04-09T08:24:59.896Z,1007.01
2019-04-09T08:26:03.204Z,1007.01
2019-04-09T08:26:58.186Z,1006.95
2019-04-09T08:27:59.322Z,1006.99
2019-04-09T08:28:58.264Z,1006.95
2019-04-09T08:30:45.353Z,1007.01
2019-04-09T08:32:24.554Z,1007.03
2019-04-09T08:33:24.232Z,1007.05
2019-04-09T08:34:25.535Z,1006.98
2019-04-09T08:35:24.120Z,1006.97
2019-04-09T08:36:24.313Z,1007.04
2019-04-09T08:37:24.164Z,1007.05
2019-04-09T08:38:26.694Z,1007.03
2019-04-09T08:39:24.319Z,1007.05
2019-04-09T08:40:24.075Z,1007.08
2019-04-09T08:41:25.119Z,1007.03
2019-04-09T08:42:29.500Z,1007.04
2019-04-09T08:43:24.649Z,1007.06
2019-04-09T08:44:23.781Z,1007.06
2019-04-09T08:45:25.225Z,1007.07
2019-04-09T08:46:26.014Z,1007.05
2019-04-09T08:47:23.884Z,1007.11
2019-04-09T08:48:23.910Z,1007.01
2019-04-09T08:49:24.148Z,1007.00
2019-04-09T08:50:27.538Z,1007.00
2019-04-09T08:51:25.249Z,1007.07
2019-04-09T08:52:24.056Z,1007.08
2019-04-09T08:53:26.424Z,1007.08
2019-04-09T08:54:27.164Z,1007.10
2019-04-09T08:55:24.137Z,1007.11
2019-04-09T08:56:25.206Z,1007.09
2019-04-09T08:57:25.198Z,1007.15
2019-04-09T08:58:26.140Z,1007.11
2019-04-09T08:59:28.341Z,1007.13
2019-04-09T09:00:53.897Z,1007.14
2019-04-09T09:01:48.868Z,1007.17
2019-04-09T09:02:31.143Z,1007.16
2019-04-09T09:03:27.971Z,1007.15
2019-04-09T09:04:24.423Z,1007.15
2019-04-09T09:05:25.141Z,1007.17
2019-04-09T09:06:24.487Z,1007.16
2019-04-09T09:07:28.316Z,1007.21
2019-04-09T09:08:25.181Z,1007.21
2019-04-09T09:09:24.585Z,1007.24
2019-04-09T09:10:24.620Z,1007.28
2019-04-09T09:11:28.458Z,1007.26
2019-04-09T09:12:24.687Z,1007.32
2019-04-09T09:13:24.718Z,1007.35
2019-04-09T09:14:24.760Z,1007.33
2019-04-09T09:15:25.045Z,1007.34
2019-04-09T09:16:28.087Z,1007.38
2019-04-09T09:17:25.301Z,1007.37
2019-04-09T09:18:24.881Z,1007.38
2019-04-09T09:19:29.634Z,1007.45
2019-04-09T09:20:28.788Z,1007.38
2019-04-09T09:21:32.327Z,1007.39
2019-04-09T09:22:25.013Z,1007.41
2019-04-09T09:23:25.876Z,1007.41
2019-04-09T09:24:25.132Z,1007.32
2019-04-09T09:25:28.601Z,1007.32
2019-04-09T09:26:25.146Z,1007.27
2019-04-09T09:27:25.179Z,1007.29
2019-04-09T09:28:25.213Z,1007.28
2019-04-09T09:29:25.246Z,1007.27
2019-04-09T09:30:32.136Z,1007.24
2019-04-09T09:31:31.188Z,1007.25
2019-04-09T09:32:25.345Z,1007.17
2019-04-09T09:33:30.599Z,1007.15
2019-04-09T09:34:26.027Z,1007.21
2019-04-09T09:35:28.805Z,1007.15
2019-04-09T09:36:25.483Z,1007.16
2019-04-09T09:37:25.516Z,1007.16
2019-04-09T09:38:25.578Z,1007.20
2019-04-09T09:39:30.074Z,1007.20
2019-04-09T09:40:29.670Z,1007.13
2019-04-09T09:41:26.304Z,1007.14
2019-04-09T09:42:25.683Z,1007.11
2019-04-09T09:43:26.749Z,1007.07
2019-04-09T09:44:26.885Z,1007.05
2019-04-09T09:45:28.565Z,1007.05
2019-04-09T09:46:25.948Z,1007.09
2019-04-09T09:47:26.824Z,1007.07
2019-04-09T09:48:26.459Z,1007.08
2019-04-09T09:49:29.513Z,1007.17
2019-04-09T09:50:26.464Z,1007.10
2019-04-09T09:51:26.338Z,1007.13
2019-04-09T09:52:26.029Z,1007.10
2019-04-09T09:53:29.387Z,1007.08
2019-04-09T09:54:26.568Z,1007.10
2019-04-09T09:55:26.134Z,1007.05
2019-04-09T09:56:32.814Z,1007.11
2019-04-09T09:57:26.196Z,1007.06
2019-04-09T09:58:27.016Z,1007.10
2019-04-09T09:59:30.504Z,1007.03
2019-04-09T10:00:28.426Z,1007.10
2019-04-09T10:01:33.201Z,1007.14
2019-04-09T10:02:30.718Z,1007.12
2019-04-09T10:03:26.404Z,1007.16
2019-04-09T10:04:26.441Z,1007.18
2019-04-09T10:05:29.841Z,1007.18
2019-04-09T10:06:27.755Z,1007.15
2019-04-09T10:07:38.638Z,1007.12
2019-04-09T10:08:29.680Z,1007.13
2019-04-09T10:09:29.146Z,1007.12
2019-04-09T10:10:28.720Z,1007.16
2019-04-09T10:11:30.387Z,1007.15
2019-04-09T10:12:34.495Z,1007.18
2019-04-09T10:13:27.439Z,1007.19
2019-04-09T10:14:29.376Z,1007.15
2019-04-09T10:15:27.434Z,1007.19
2019-04-09T10:16:27.588Z,1007.16
2019-04-09T10:17:31.601Z,1007.15
2019-04-09T10:18:28.498Z,1007.08
2019-04-09T10:19:29.808Z,1007.10
2019-04-09T10:20:31.143Z,1007.18
2019-04-09T10:21:27.025Z,1007.11
2019-04-09T10:22:27.951Z,1007.14
2019-04-09T10:23:30.310Z,1007.18
2019-04-09T10:24:31.491Z,1007.17
2019-04-09T10:25:31.126Z,1007.17
2019-04-09T10:26:27.352Z,1007.12
2019-04-09T10:27:27.337Z,1007.14
2019-04-09T10:28:29.645Z,1007.13
2019-04-09T10:29:31.071Z,1007.07
2019-04-09T10:30:27.951Z,1007.01
2019-04-09T10:31:36.498Z,1006.95
2019-04-09T10:32:27.995Z,1006.95
2019-04-09T10:33:27.433Z,1007.03
2019-04-09T10:34:30.251Z,1007.03
2019-04-09T10:35:30.849Z,1007.09
2019-04-09T10:36:27.536Z,1007.21
2019-04-09T10:37:27.576Z,1007.18
2019-04-09T10:38:27.611Z,1007.19
2019-04-09T10:39:34.084Z,1007.17
2019-04-09T10:40:27.910Z,1007.18
2019-04-09T10:41:36.138Z,1007.20
2019-04-09T10:42:27.749Z,1007.16
2019-04-09T10:43:28.442Z,1007.13
2019-04-09T10:44:28.800Z,1007.13
2019-04-09T10:45:28.518Z,1007.12
2019-04-09T10:46:30.040Z,1007.23
2019-04-09T10:47:28.833Z,1007.23
2019-04-09T10:48:28.747Z,1007.22
2019-04-09T10:49:28.650Z,1007.34
2019-04-09T10:50:31.555Z,1007.43
2019-04-09T10:51:28.053Z,1007.59
2019-04-09T10:52:28.800Z,1007.71
2019-04-09T10:53:31.619Z,1007.86
2019-04-09T10:54:28.167Z,1008.03
2019-04-09T10:55:28.195Z,1008.05
2019-04-09T10:56:31.528Z,1008.12
2019-04-09T10:57:28.266Z,1008.39
2019-04-09T10:58:28.303Z,1008.64
2019-04-09T10:59:31.916Z,1008.88
2019-04-09T11:00:28.363Z,1008.99
2019-04-09T11:01:35.178Z,1009.02
2019-04-09T11:02:30.650Z,1009.13
2019-04-09T11:03:28.529Z,1009.28
2019-04-09T11:04:29.464Z,1009.37
2019-04-09T11:05:28.552Z,1009.41
2019-04-09T11:06:29.581Z,1009.29
2019-04-09T11:07:32.255Z,1009.22
2019-04-09T11:08:28.840Z,1009.18
2019-04-09T11:09:28.676Z,1009.28
2019-04-09T11:10:31.489Z,1009.30
2019-04-09T11:11:28.963Z,1009.30
2019-04-09T11:12:29.606Z,1009.26
2019-04-09T11:13:32.075Z,1009.17
2019-04-09T11:14:28.847Z,1009.10
2019-04-09T11:15:28.883Z,1009.10
2019-04-09T11:16:30.924Z,1009.11
2019-04-09T11:17:30.098Z,1009.07
2019-04-09T11:18:29.663Z,1008.93
2019-04-09T11:19:29.569Z,1008.74
2019-04-09T11:20:30.137Z,1008.66
2019-04-09T11:21:30.776Z,1008.57
2019-04-09T11:22:30.207Z,1008.47
2019-04-09T11:23:29.176Z,1008.29
2019-04-09T11:24:30.983Z,1008.15
2019-04-09T11:25:32.996Z,1008.04
2019-04-09T11:26:32.228Z,1008.01
2019-04-09T11:27:30.497Z,1007.88
2019-04-09T11:28:30.046Z,1007.77
2019-04-09T11:29:29.616Z,1007.73
2019-04-09T11:30:29.904Z,1007.60
2019-04-09T11:31:30.484Z,1007.48
2019-04-09T11:32:29.827Z,1007.48
2019-04-09T11:33:29.511Z,1007.40
2019-04-09T11:34:29.543Z,1007.36
2019-04-09T11:35:30.408Z,1007.39
2019-04-09T11:36:29.618Z,1007.44
2019-04-09T11:37:30.782Z,1007.45
2019-04-09T11:38:29.967Z,1007.46
2019-04-09T11:39:29.718Z,1007.41
2019-04-09T11:40:30.702Z,1007.45
2019-04-09T11:41:30.670Z,1007.52
2019-04-09T11:42:29.826Z,1007.60
2019-04-09T11:43:30.022Z,1007.55
2019-04-09T11:44:29.896Z,1007.60
2019-04-09T11:45:29.934Z,1007.61
2019-04-09T11:46:30.519Z,1007.55
2019-04-09T11:47:30.902Z,1007.55
2019-04-09T11:48:30.034Z,1007.56
2019-04-09T11:49:30.913Z,1007.55
2019-04-09T11:50:30.113Z,1007.58
2019-04-09T11:51:30.141Z,1007.59
2019-04-09T11:52:30.363Z,1007.62
2019-04-09T11:53:30.212Z,1007.63
2019-04-09T11:54:30.329Z,1007.57
2019-04-09T11:55:31.360Z,1007.58
2019-04-09T11:56:30.315Z,1007.52
2019-04-09T11:57:30.861Z,1007.53
2019-04-09T11:58:32.732Z,1007.41
2019-04-09T11:59:31.460Z,1007.42
2019-04-09T12:00:30.932Z,1007.35
2019-04-09T12:01:30.490Z,1007.29
2019-04-09T12:02:30.532Z,1007.29
2019-04-09T12:03:30.820Z,1007.21
2019-04-09T12:04:30.594Z,1007.20
2019-04-09T12:05:30.631Z,1007.14
2019-04-09T12:06:31.343Z,1007.01
2019-04-09T12:07:30.702Z,1006.95
2019-04-09T12:08:30.861Z,1006.88
2019-04-09T12:09:31.859Z,1006.85
2019-04-09T12:10:30.809Z,1006.79
2019-04-09T12:11:31.500Z,1006.67
2019-04-09T12:12:30.882Z,1006.68